Time;durP1;ratioP1;P1;durP2;ratioP2;P2;SDS_P1;SDS_P2;PMS_P1;PMS_P2;Temp;Humidity;BMP_temperature;BMP_pressure;BME280_temperature;BME280_humidity;BME280_pressure;Samples;Min_cycle;Max_cycle;Signal;HPM_P1;HPM_P2
2022/11/12 00:00:49;;;;;;;6.57;4.97;;;11.90;99.90;11.30;101526;;;;568363;248;25226;-78
2022/11/12 00:03:17;;;;;;;7.30;4.90;;;11.90;99.90;11.20;101522;;;;568510;248;24082;-82
2022/11/12 00:05:49;;;;;;;7.77;4.57;;;11.80;99.90;11.20;101513;;;;568398;248;24114;-78
2022/11/12 00:08:16;;;;;;;6.27;4.70;;;11.80;99.90;11.20;101517;;;;568961;248;24181;-80
2022/11/12 00:10:41;;;;;;;4.83;4.33;;;11.90;99.90;11.20;101518;;;;569438;248;24079;-79
2022/11/12 00:13:09;;;;;;;6.77;4.93;;;11.80;99.90;11.20;101516;;;;569210;248;24102;-77
2022/11/12 00:15:38;;;;;;;9.27;4.87;;;11.80;99.90;11.20;101516;;;;569160;248;24105;-78
2022/11/12 00:18:10;;;;;;;10.40;5.57;;;11.80;99.90;11.20;101515;;;;569060;246;24136;-79
2022/11/12 00:20:35;;;;;;;9.40;5.33;;;11.80;99.90;11.20;101521;;;;568738;248;24183;-77
2022/11/12 00:23:03;;;;;;;8.87;5.40;;;11.80;99.90;11.20;101519;;;;568933;248;24101;-77
2022/11/12 00:25:31;;;;;;;4.70;4.20;;;11.80;99.90;11.20;101524;;;;568719;248;24131;-77
2022/11/12 00:28:05;;;;;;;9.40;4.73;;;11.80;99.90;11.20;101522;;;;568756;248;24081;-85
2022/11/12 00:30:35;;;;;;;6.40;4.57;;;11.80;99.90;11.20;101524;;;;568565;248;24084;-78
2022/11/12 00:33:02;;;;;;;5.47;4.27;;;11.80;99.90;11.20;101526;;;;568624;248;24133;-77
2022/11/12 00:35:36;;;;;;;8.63;5.97;;;11.80;99.90;11.20;101529;;;;568544;248;24093;-77
2022/11/12 00:38:02;;;;;;;6.17;4.27;;;11.80;99.90;11.20;101524;;;;568666;248;24207;-79
2022/11/12 00:40:30;;;;;;;8.10;6.10;;;11.80;99.90;11.20;101536;;;;568872;248;24093;-77
2022/11/12 00:42:58;;;;;;;8.00;4.47;;;11.80;99.90;11.20;101532;;;;568752;248;24079;-81
2022/11/12 00:45:25;;;;;;;6.40;4.57;;;11.80;99.90;11.20;101528;;;;568752;248;24113;-86
2022/11/12 00:47:57;;;;;;;11.83;5.80;;;11.80;99.90;11.20;101540;;;;568616;248;24077;-83
2022/11/12 00:50:26;;;;;;;5.23;4.70;;;11.80;99.90;11.20;101532;;;;568372;248;24179;-82
2022/11/12 00:52:56;;;;;;;8.60;5.17;;;11.80;99.90;11.20;101525;;;;568463;248;24104;-81
2022/11/12 00:55:22;;;;;;;8.17;5.03;;;11.80;99.90;11.20;101527;;;;568428;248;24102;-85
2022/11/12 00:57:50;;;;;;;8.13;5.17;;;11.80;99.90;11.20;101531;;;;568495;248;24086;-83
2022/11/12 01:00:21;;;;;;;6.83;6.00;;;11.80;99.90;11.20;101525;;;;568417;248;24159;-83
2022/11/12 01:02:46;;;;;;;7.50;5.27;;;11.80;99.90;11.20;101527;;;;568242;248;24128;-82
2022/11/12 01:05:18;;;;;;;9.50;5.77;;;11.70;99.90;11.20;101525;;;;568551;248;24107;-84
2022/11/12 01:07:42;;;;;;;5.50;4.80;;;11.70;99.90;11.10;101522;;;;568201;248;24111;-86
2022/11/12 01:10:13;;;;;;;7.57;5.23;;;11.70;99.90;11.20;101528;;;;568513;248;24074;-86
2022/11/12 01:12:38;;;;;;;8.63;5.30;;;11.70;99.90;11.20;101525;;;;568240;244;24104;-86
2022/11/12 01:15:06;;;;;;;8.43;5.53;;;11.70;99.90;11.20;101525;;;;568562;248;24112;-88
2022/11/12 01:17:34;;;;;;;5.87;5.17;;;11.80;99.90;11.20;101535;;;;568373;248;24093;-86
2022/11/12 01:20:05;;;;;;;5.37;4.77;;;11.80;99.90;11.20;101539;;;;569730;248;24069;-86
2022/11/12 01:22:30;;;;;;;8.90;5.13;;;11.70;99.90;11.20;101540;;;;569409;248;24102;-88
2022/11/12 01:24:58;;;;;;;6.80;5.27;;;11.70;99.90;11.10;101538;;;;569396;248;24074;-79
2022/11/12 01:27:26;;;;;;;5.43;4.40;;;11.70;99.90;11.20;101541;;;;569214;248;24126;-79
2022/11/12 01:29:54;;;;;;;9.80;5.30;;;11.70;99.90;11.20;101555;;;;568816;243;24167;-76
2022/11/12 01:32:22;;;;;;;8.40;5.23;;;11.70;99.90;11.10;101545;;;;568948;248;24109;-79
2022/11/12 01:34:52;;;;;;;8.87;4.97;;;11.70;99.90;11.10;101551;;;;568847;248;24105;-78
2022/11/12 01:37:18;;;;;;;9.00;4.57;;;11.70;99.90;11.10;101552;;;;568864;248;24088;-79
2022/11/12 01:39:46;;;;;;;5.80;4.83;;;11.70;99.90;11.10;101549;;;;568628;248;24105;-79
2022/11/12 01:42:14;;;;;;;9.77;5.33;;;11.70;99.90;11.20;101559;;;;568685;248;24096;-79
2022/11/12 01:44:42;;;;;;;5.23;4.23;;;11.70;99.90;11.10;101555;;;;568704;248;24142;-81
2022/11/12 01:47:20;;;;;;;7.73;4.87;;;11.70;99.90;11.10;101554;;;;568572;248;24109;-78
2022/11/12 01:50:17;;;;;;;9.17;5.03;;;11.70;99.90;11.10;101552;;;;567095;248;24167;-81
2022/11/12 01:52:50;;;;;;;7.47;4.90;;;11.70;99.90;11.10;101561;;;;568546;248;24083;-78
2022/11/12 01:55:24;;;;;;;7.20;5.93;;;11.70;99.90;11.10;101566;;;;563300;248;35290;-78
2022/11/12 01:57:51;;;;;;;7.80;5.40;;;11.70;99.90;11.10;101570;;;;568129;248;24096;-85
2022/11/12 02:00:19;;;;;;;8.23;4.53;;;11.70;99.90;11.10;101559;;;;568077;248;24100;-84
2022/11/12 02:02:47;;;;;;;7.00;6.30;;;11.70;99.90;11.10;101568;;;;563661;248;35335;-84
2022/11/12 02:05:15;;;;;;;8.80;5.60;;;11.70;99.90;11.20;101568;;;;568085;248;24074;-84
2022/11/12 02:07:43;;;;;;;8.97;5.70;;;11.80;99.90;11.20;101557;;;;568766;248;24082;-83
2022/11/12 02:10:11;;;;;;;8.90;5.20;;;11.70;99.90;11.10;101561;;;;568546;248;24094;-85
2022/11/12 02:15:28;;;;;;;7.60;4.60;;;11.80;99.90;11.20;101558;;;;568458;248;24136;-84
2022/11/12 02:17:57;;;;;;;7.90;5.00;;;11.70;99.90;11.20;101565;;;;568649;248;24106;-85
2022/11/12 02:20:22;;;;;;;8.33;5.13;;;11.70;99.90;11.20;101558;;;;568483;248;24149;-80
2022/11/12 02:22:50;;;;;;;6.67;5.20;;;11.80;99.90;11.20;101569;;;;568744;248;24116;-77
2022/11/12 02:25:21;;;;;;;7.30;4.77;;;11.80;99.90;11.10;101568;;;;568853;248;24080;-78
2022/11/12 02:27:50;;;;;;;5.63;4.47;;;11.70;99.90;11.10;101566;;;;568884;248;24095;-77
2022/11/12 02:30:22;;;;;;;6.10;4.33;;;11.70;99.90;11.10;101569;;;;568971;246;24140;-77
2022/11/12 02:32:48;;;;;;;10.60;5.07;;;11.70;99.90;11.10;101562;;;;569934;248;24120;-79
2022/11/12 02:35:15;;;;;;;9.53;4.60;;;11.70;99.90;11.10;101563;;;;569765;248;24076;-79
2022/11/12 02:37:43;;;;;;;6.00;3.37;;;11.70;99.90;11.10;101565;;;;569688;248;24087;-77
2022/11/12 02:40:11;;;;;;;6.73;4.50;;;11.70;99.90;11.10;101573;;;;569596;248;24067;-77
2022/11/12 02:42:39;;;;;;;7.90;5.10;;;11.70;99.90;11.10;101570;;;;569425;248;24084;-78
2022/11/12 02:45:07;;;;;;;4.97;4.50;;;11.70;99.90;11.10;101569;;;;569399;248;24111;-79
2022/11/12 02:47:35;;;;;;;9.03;4.30;;;11.70;99.90;11.20;101583;;;;569277;248;24082;-79
2022/11/12 02:50:03;;;;;;;9.00;4.87;;;11.70;99.90;11.10;101573;;;;569113;248;24124;-78
2022/11/12 02:52:31;;;;;;;5.30;4.20;;;11.70;99.90;11.20;101578;;;;568929;248;24099;-79
2022/11/12 02:54:59;;;;;;;10.47;5.10;;;11.70;99.90;11.20;101575;;;;568757;248;24166;-81
2022/11/12 02:57:30;;;;;;;6.13;4.30;;;11.80;99.90;11.20;101583;;;;568647;248;24145;-79
2022/11/12 02:59:57;;;;;;;7.43;4.53;;;11.80;99.90;11.20;101577;;;;568514;243;24140;-77
2022/11/12 03:02:23;;;;;;;6.60;4.27;;;11.80;99.90;11.20;101572;;;;568617;248;24093;-78
2022/11/12 03:04:52;;;;;;;9.07;4.73;;;11.80;99.90;11.20;101571;;;;568658;248;24089;-79
2022/11/12 03:07:21;;;;;;;8.40;4.77;;;11.80;99.90;11.20;101574;;;;568513;248;24140;-77
2022/11/12 03:09:49;;;;;;;5.47;4.03;;;11.80;99.90;11.20;101578;;;;568380;248;24155;-78
2022/11/12 03:12:16;;;;;;;7.07;4.23;;;11.80;99.90;11.20;101572;;;;568501;248;24109;-78
2022/11/12 03:14:44;;;;;;;9.47;4.87;;;11.80;99.90;11.20;101573;;;;568351;248;24093;-78
2022/11/12 03:17:12;;;;;;;6.37;3.93;;;11.80;99.90;11.20;101576;;;;568567;248;24090;-80
2022/11/12 03:19:40;;;;;;;6.53;3.67;;;11.80;99.90;11.20;101577;;;;568784;248;24093;-80
2022/11/12 03:22:08;;;;;;;8.47;4.10;;;11.80;99.90;11.20;101580;;;;568778;248;24136;-83
2022/11/12 03:24:36;;;;;;;10.53;4.17;;;11.80;99.90;11.20;101580;;;;568684;248;24149;-79
2022/11/12 03:27:05;;;;;;;8.40;3.97;;;11.80;99.90;11.20;101585;;;;568783;248;24111;-78
2022/11/12 03:29:33;;;;;;;6.10;3.60;;;11.80;99.90;11.20;101582;;;;568794;248;25104;-78
2022/11/12 03:32:01;;;;;;;6.97;4.13;;;11.80;99.90;11.20;101571;;;;568781;244;24171;-78
2022/11/12 03:34:29;;;;;;;8.10;3.73;;;11.80;99.90;11.20;101582;;;;568771;248;24107;-80
2022/11/12 03:36:57;;;;;;;13.47;4.40;;;11.80;99.90;11.20;101583;;;;568824;248;24130;-86
2022/11/12 03:39:25;;;;;;;6.87;4.30;;;11.80;99.90;11.20;101582;;;;568829;248;24131;-80
2022/11/12 03:41:54;;;;;;;9.20;4.20;;;11.80;99.90;11.20;101576;;;;569102;246;24083;-86
2022/11/12 03:44:23;;;;;;;9.37;3.57;;;11.80;99.90;11.20;101577;;;;570289;248;24075;-87
2022/11/12 03:46:51;;;;;;;5.43;4.10;;;11.80;99.90;11.20;101588;;;;569714;248;24080;-79
2022/11/12 03:49:20;;;;;;;6.67;4.00;;;11.80;99.90;11.20;101584;;;;569487;248;24114;-78
2022/11/12 03:51:48;;;;;;;9.77;3.87;;;11.80;99.90;11.20;101577;;;;569479;248;24113;-79
2022/11/12 03:54:16;;;;;;;5.37;3.50;;;11.80;99.90;11.20;101587;;;;569309;248;24071;-86
2022/11/12 03:56:45;;;;;;;7.07;4.40;;;11.80;99.90;11.20;101577;;;;569012;248;24080;-83
2022/11/12 03:59:13;;;;;;;8.97;4.40;;;11.80;99.90;11.20;101575;;;;569081;248;24185;-85
2022/11/12 04:01:40;;;;;;;6.60;4.27;;;11.80;99.90;11.20;101572;;;;568818;248;24084;-87
2022/11/12 04:04:08;;;;;;;5.63;4.20;;;11.80;99.90;11.20;101569;;;;568877;248;24162;-85
2022/11/12 04:09:22;;;;;;;7.73;4.13;;;11.80;99.90;11.20;101571;;;;568922;248;24133;-77
2022/11/12 04:11:51;;;;;;;6.70;4.50;;;11.80;99.90;11.20;101569;;;;568620;248;24077;-85
2022/11/12 04:14:19;;;;;;;8.17;4.23;;;11.80;99.90;11.20;101570;;;;568868;248;24151;-85
2022/11/12 04:22:20;;;;;;;7.07;4.00;;;11.80;99.90;11.20;101571;;;;568695;248;24105;-79
2022/11/12 04:27:34;;;;;;;11.13;4.07;;;11.80;99.90;11.20;101557;;;;568853;248;24099;-83
2022/11/12 04:30:18;;;;;;;8.03;4.07;;;11.80;99.90;11.20;101557;;;;568730;248;24093;-78
2022/11/12 04:32:54;;;;;;;8.60;3.77;;;11.80;99.90;11.20;101563;;;;568794;248;24127;-78
2022/11/12 04:35:22;;;;;;;7.30;4.20;;;11.80;99.90;11.20;101559;;;;568715;248;25130;-77
2022/11/12 04:37:51;;;;;;;7.53;3.90;;;11.80;99.90;11.20;101561;;;;568767;248;24157;-79
2022/11/12 04:45:52;;;;;;;5.10;3.17;;;11.80;99.90;11.20;101569;;;;568842;248;24122;-85
2022/11/12 04:48:22;;;;;;;7.17;4.27;;;11.80;99.90;11.20;101560;;;;568852;248;25131;-78
2022/11/12 04:50:50;;;;;;;8.97;4.30;;;11.80;99.90;11.20;101553;;;;568636;248;24144;-78
2022/11/12 04:53:18;;;;;;;10.33;3.70;;;11.80;99.90;11.20;101550;;;;568575;246;24090;-82
2022/11/12 04:55:46;;;;;;;7.30;3.50;;;11.80;99.90;11.20;101552;;;;570462;248;24138;-79
2022/11/12 04:58:14;;;;;;;7.40;3.60;;;11.80;99.90;11.20;101558;;;;569577;248;24100;-79
2022/11/12 05:00:42;;;;;;;7.87;4.47;;;11.80;99.90;11.20;101554;;;;569198;248;24091;-79
2022/11/12 05:03:12;;;;;;;7.77;4.20;;;11.80;99.90;11.20;101555;;;;569014;248;24203;-80
2022/11/12 05:05:39;;;;;;;6.90;3.40;;;11.80;99.90;11.20;101557;;;;568730;248;24084;-78
2022/11/12 05:08:07;;;;;;;6.13;3.50;;;11.80;99.90;11.20;101559;;;;568813;248;24091;-78
2022/11/12 05:10:38;;;;;;;5.87;3.37;;;11.80;99.90;11.20;101559;;;;569100;248;24395;-82
2022/11/12 05:13:03;;;;;;;7.40;3.77;;;11.80;99.90;11.20;101550;;;;568751;248;24101;-79
2022/11/12 05:15:31;;;;;;;6.70;4.20;;;11.80;99.90;11.20;101556;;;;568600;248;24074;-80
2022/11/12 05:17:59;;;;;;;7.63;3.80;;;11.80;99.90;11.20;101558;;;;568863;248;24112;-78
2022/11/12 05:20:27;;;;;;;4.93;3.87;;;11.80;99.90;11.20;101561;;;;568701;248;24094;-78
2022/11/12 05:22:54;;;;;;;13.47;4.77;;;11.80;99.90;11.20;101561;;;;569061;248;24074;-79
2022/11/12 05:25:23;;;;;;;4.23;3.50;;;11.80;99.90;11.20;101561;;;;569110;248;24182;-78
2022/11/12 05:27:51;;;;;;;6.80;3.70;;;11.80;99.90;11.30;101566;;;;569170;247;24186;-77
2022/11/12 05:30:19;;;;;;;5.67;3.93;;;11.80;99.90;11.30;101570;;;;568814;248;24181;-78
2022/11/12 05:32:47;;;;;;;4.83;3.63;;;11.90;99.90;11.30;101576;;;;568731;248;24090;-79
2022/11/12 05:35:15;;;;;;;7.07;4.80;;;11.90;99.90;11.30;101572;;;;563641;248;35340;-77
2022/11/12 05:37:46;;;;;;;8.40;4.27;;;11.90;99.90;11.30;101573;;;;568898;248;24099;-79
2022/11/12 05:40:11;;;;;;;10.00;4.13;;;11.90;99.90;11.30;101577;;;;568293;248;24139;-79
2022/11/12 05:42:39;;;;;;;5.87;3.93;;;11.90;99.90;11.30;101567;;;;568935;248;24080;-80
2022/11/12 05:45:07;;;;;;;6.17;4.00;;;11.90;99.90;11.30;101575;;;;568962;248;24079;-83
2022/11/12 05:47:35;;;;;;;5.90;3.67;;;11.90;99.90;11.30;101585;;;;568961;248;24073;-81
2022/11/12 05:50:03;;;;;;;6.17;3.50;;;11.90;99.90;11.30;101580;;;;568822;248;25159;-80
2022/11/12 05:52:31;;;;;;;8.40;3.30;;;11.90;99.90;11.30;101583;;;;568885;248;24126;-77
2022/11/12 05:54:59;;;;;;;4.73;3.43;;;11.90;99.90;11.30;101584;;;;568857;248;24118;-80
2022/11/12 05:57:29;;;;;;;5.77;3.33;;;11.90;99.90;11.40;101598;;;;568994;248;24095;-86
2022/11/12 05:59:58;;;;;;;6.53;3.40;;;11.90;99.90;11.30;101597;;;;568573;243;24084;-85
2022/11/12 06:02:26;;;;;;;5.27;3.50;;;11.90;99.90;11.40;101591;;;;568548;248;24121;-86
2022/11/12 06:04:54;;;;;;;6.83;3.37;;;12.00;99.90;11.30;101593;;;;568838;246;24097;-80
2022/11/12 06:07:22;;;;;;;4.53;3.63;;;12.00;99.90;11.30;101589;;;;569926;248;24092;-81
2022/11/12 06:09:51;;;;;;;10.13;3.70;;;11.90;99.90;11.30;101588;;;;569583;248;24141;-80
2022/11/12 06:12:19;;;;;;;9.37;3.30;;;12.00;99.90;11.40;101597;;;;569246;248;24104;-79
2022/11/12 06:14:48;;;;;;;6.63;3.23;;;12.00;99.90;11.40;101592;;;;569023;248;24122;-79
2022/11/12 06:17:16;;;;;;;6.33;3.87;;;12.00;99.90;11.40;101589;;;;568976;248;24148;-77
2022/11/12 06:19:44;;;;;;;7.80;3.27;;;12.00;99.90;11.40;101603;;;;568879;248;24088;-78
2022/11/12 06:22:12;;;;;;;4.03;3.30;;;12.00;99.90;11.40;101599;;;;569074;248;24095;-78
2022/11/12 06:24:40;;;;;;;9.40;3.70;;;12.00;99.90;11.40;101601;;;;569285;248;24118;-78
2022/11/12 06:27:08;;;;;;;9.87;3.87;;;12.00;99.90;11.40;101607;;;;569049;248;24111;-78
2022/11/12 06:29:37;;;;;;;7.03;3.63;;;12.00;99.90;11.40;101603;;;;569165;248;24105;-86
2022/11/12 06:32:04;;;;;;;6.40;3.40;;;12.00;99.90;11.50;101606;;;;569113;243;24224;-79
2022/11/12 06:34:31;;;;;;;11.00;3.87;;;12.00;99.90;11.50;101602;;;;569095;246;24179;-79
2022/11/12 06:36:59;;;;;;;10.80;4.17;;;12.10;99.90;11.50;101609;;;;569065;248;24089;-79
2022/11/12 06:39:27;;;;;;;8.83;3.60;;;12.10;99.90;11.50;101615;;;;569063;248;24094;-78
2022/11/12 06:41:56;;;;;;;4.93;3.47;;;12.10;99.90;11.60;101608;;;;568961;248;24104;-80
2022/11/12 06:44:24;;;;;;;5.87;3.00;;;12.20;99.90;11.60;101620;;;;568845;248;24082;-80
2022/11/12 06:46:52;;;;;;;5.87;3.33;;;12.20;99.90;11.60;101616;;;;568835;248;24183;-79
2022/11/12 06:49:20;;;;;;;10.40;3.13;;;12.20;99.90;11.70;101612;;;;568840;248;24096;-78
2022/11/12 06:51:48;;;;;;;2.97;2.67;;;12.30;99.90;11.70;101624;;;;568546;248;24074;-80
2022/11/12 06:54:16;;;;;;;3.43;2.97;;;12.30;99.90;11.70;101615;;;;568327;248;24095;-79
2022/11/12 06:56:44;;;;;;;5.30;2.47;;;12.30;99.90;11.80;101630;;;;568547;248;24070;-79
2022/11/12 06:59:12;;;;;;;4.70;2.70;;;12.40;99.90;11.80;101626;;;;568576;248;24127;-78
2022/11/12 07:01:39;;;;;;;3.53;2.20;;;12.40;99.90;11.90;101631;;;;568279;248;24111;-77
2022/11/12 07:04:09;;;;;;;4.70;2.77;;;12.50;99.90;11.90;101627;;;;568589;248;24077;-79
2022/11/12 07:06:35;;;;;;;6.97;2.43;;;12.50;99.90;11.90;101638;;;;568374;248;24136;-77
2022/11/12 07:09:03;;;;;;;4.90;2.50;;;12.50;99.90;12.00;101628;;;;568503;248;24070;-78
2022/11/12 07:11:31;;;;;;;3.17;2.43;;;12.60;99.90;12.00;101634;;;;568464;248;24149;-78
2022/11/12 07:13:59;;;;;;;4.70;2.13;;;12.60;99.90;12.10;101652;;;;568635;248;24094;-79
2022/11/12 07:16:27;;;;;;;9.43;2.97;;;12.70;99.90;12.10;101649;;;;568726;246;24090;-78
2022/11/12 07:18:55;;;;;;;4.87;2.60;;;12.70;99.90;12.10;101643;;;;570020;248;24089;-78
2022/11/12 07:21:23;;;;;;;6.10;3.60;;;12.70;99.90;12.10;101637;;;;569754;248;24185;-82
2022/11/12 07:23:51;;;;;;;4.87;3.00;;;12.70;99.90;12.20;101648;;;;569938;248;24104;-78
2022/11/12 07:26:19;;;;;;;6.03;2.27;;;12.80;99.90;12.20;101653;;;;569355;248;24073;-80
2022/11/12 07:28:49;;;;;;;6.53;3.07;;;12.80;99.90;12.20;101657;;;;564308;248;35299;-77
2022/11/12 07:31:16;;;;;;;6.07;2.53;;;12.80;99.90;12.30;101656;;;;569235;248;24114;-77
2022/11/12 07:33:48;;;;;;;4.60;2.50;;;12.80;99.90;12.30;101664;;;;569213;248;24122;-78
2022/11/12 07:36:12;;;;;;;5.90;2.40;;;12.90;99.90;12.30;101679;;;;568649;248;24169;-78
2022/11/12 07:38:40;;;;;;;3.63;2.70;;;12.90;99.90;12.40;101689;;;;568987;248;24113;-77
2022/11/12 07:41:17;;;;;;;4.93;2.23;;;13.00;99.90;12.40;101683;;;;568907;248;24096;-77
2022/11/12 07:43:45;;;;;;;2.30;1.67;;;13.00;99.90;12.40;101678;;;;568249;248;24111;-78
2022/11/12 07:46:15;;;;;;;3.80;2.10;;;13.00;99.90;12.50;101696;;;;568887;248;24135;-78
2022/11/12 07:48:46;;;;;;;3.93;2.70;;;13.10;99.90;12.50;101690;;;;568969;248;24073;-79
2022/11/12 07:51:17;;;;;;;4.60;2.17;;;13.10;99.90;12.60;101678;;;;568705;248;25178;-78
2022/11/12 07:53:45;;;;;;;2.67;2.20;;;13.10;99.90;12.60;101711;;;;568609;248;24095;-78
2022/11/12 07:56:16;;;;;;;8.77;2.03;;;13.20;99.90;12.70;101682;;;;568639;248;24151;-79
2022/11/12 07:58:42;;;;;;;3.53;2.40;;;13.30;99.90;12.70;101688;;;;568509;248;24091;-77
2022/11/12 08:01:25;;;;;;;5.77;3.10;;;13.30;99.90;12.70;101698;;;;568653;248;26193;-80
2022/11/12 08:03:53;;;;;;;3.77;2.13;;;13.30;99.90;12.80;101685;;;;567973;248;24095;-78
2022/11/12 08:06:21;;;;;;;4.53;2.13;;;13.30;99.90;12.80;101692;;;;568426;248;24085;-79
2022/11/12 08:08:55;;;;;;;4.13;2.20;;;13.40;99.90;12.90;101680;;;;568405;248;24078;-79
2022/11/12 08:11:20;;;;;;;6.20;2.67;;;13.50;99.90;13.00;101687;;;;568009;248;24078;-79
2022/11/12 08:13:48;;;;;;;4.23;2.50;;;13.50;99.90;13.00;101692;;;;568308;248;24100;-78
2022/11/12 08:16:20;;;;;;;3.03;1.90;;;13.60;99.90;13.10;101696;;;;568562;248;24091;-79
2022/11/12 08:18:45;;;;;;;5.00;2.37;;;13.80;99.90;13.20;101699;;;;568197;248;24117;-79
2022/11/12 08:21:13;;;;;;;5.07;2.27;;;13.80;99.90;13.20;101703;;;;546859;258;24134;-79
2022/11/12 08:23:41;;;;;;;3.37;2.10;;;13.80;99.90;13.20;101723;;;;568380;248;24123;-78
2022/11/12 08:26:09;;;;;;;5.87;2.67;;;13.80;99.90;13.30;101708;;;;568774;248;24139;-78
2022/11/12 08:28:37;;;;;;;10.40;2.30;;;13.80;99.90;13.30;101716;;;;568808;247;24150;-77
2022/11/12 08:31:05;;;;;;;2.70;2.10;;;13.80;99.90;13.20;101713;;;;570015;248;24082;-80
2022/11/12 08:33:33;;;;;;;7.50;3.30;;;13.80;99.90;13.30;101730;;;;569798;243;24092;-84
2022/11/12 08:36:07;;;;;;;3.67;2.17;;;13.90;99.90;13.30;101719;;;;569668;248;24073;-82
2022/11/12 08:38:32;;;;;;;5.33;2.27;;;13.90;99.90;13.40;101718;;;;567416;246;24088;-85
2022/11/12 08:41:03;;;;;;;6.27;2.57;;;13.90;99.90;13.40;101717;;;;569359;248;24138;-82
2022/11/12 08:43:31;;;;;;;5.80;2.77;;;14.00;99.90;13.50;101720;;;;569014;248;24098;-79
2022/11/12 08:45:59;;;;;;;5.30;2.87;;;14.10;99.90;13.50;101707;;;;569200;248;24088;-79
2022/11/12 08:48:26;;;;;;;4.93;3.30;;;14.10;99.90;13.50;101701;;;;568954;248;24082;-81
2022/11/12 08:50:54;;;;;;;7.57;2.93;;;14.10;99.90;13.60;101697;;;;568996;248;24184;-79
2022/11/12 08:53:22;;;;;;;6.80;3.47;;;14.10;99.90;13.70;101701;;;;568868;248;24097;-79
2022/11/12 08:55:56;;;;;;;8.33;3.47;;;14.20;99.90;13.70;101691;;;;568932;248;24088;-81
2022/11/12 08:58:21;;;;;;;8.77;2.90;;;14.30;99.90;13.90;101688;;;;575799;248;24111;-85
2022/11/12 09:00:49;;;;;;;9.40;3.00;;;14.40;99.90;14.00;101686;;;;568997;248;24108;-79
2022/11/12 09:03:21;;;;;;;3.20;2.40;;;14.50;99.90;14.10;101688;;;;568940;248;24135;-80
2022/11/12 09:05:48;;;;;;;6.13;2.40;;;14.70;99.90;14.30;101690;;;;568436;248;24143;-85
2022/11/12 09:08:14;;;;;;;4.77;2.47;;;14.80;99.90;14.30;101692;;;;568259;248;24107;-79
2022/11/12 09:10:41;;;;;;;5.90;2.73;;;14.80;99.90;14.40;101704;;;;568423;243;24103;-81
2022/11/12 09:13:09;;;;;;;5.27;2.90;;;14.90;99.90;14.40;101714;;;;568747;248;24167;-86
2022/11/12 09:15:37;;;;;;;3.87;2.70;;;14.90;99.90;14.40;101717;;;;568733;248;24098;-79
2022/11/12 09:18:05;;;;;;;5.90;2.97;;;14.90;99.90;14.30;101725;;;;568759;248;24151;-81
2022/11/12 09:20:36;;;;;;;4.60;2.77;;;14.90;99.90;14.30;101728;;;;568725;248;24095;-81
2022/11/12 09:23:04;;;;;;;4.27;2.67;;;14.90;99.90;14.10;101734;;;;568606;248;24097;-80
2022/11/12 09:25:32;;;;;;;3.20;2.90;;;14.80;99.90;14.10;101731;;;;567480;248;24108;-78
2022/11/12 09:28:05;;;;;;;4.03;2.23;;;14.70;99.90;14.00;101734;;;;568309;248;24180;-80
2022/11/12 09:30:33;;;;;;;6.23;2.93;;;14.60;99.90;13.90;101734;;;;568154;248;24084;-85
2022/11/12 09:33:01;;;;;;;8.80;3.27;;;14.50;99.90;13.80;101734;;;;568611;248;24092;-85
2022/11/12 09:35:29;;;;;;;7.50;3.70;;;14.40;99.90;13.80;101736;;;;568421;248;24073;-80
2022/11/12 09:37:58;;;;;;;8.37;3.53;;;14.30;99.90;13.70;101734;;;;547150;258;24148;-83
2022/11/12 09:40:25;;;;;;;7.17;3.33;;;14.30;99.90;13.80;101736;;;;569056;248;24103;-81
2022/11/12 09:42:53;;;;;;;5.87;3.07;;;14.30;99.90;13.70;101744;;;;569030;248;24084;-86
2022/11/12 09:45:21;;;;;;;7.93;3.80;;;14.30;99.90;13.70;101736;;;;569395;248;24099;-84
2022/11/12 09:47:49;;;;;;;8.70;3.97;;;14.20;99.90;13.70;101728;;;;563979;248;38826;-79
2022/11/12 09:50:31;;;;;;;10.82;4.37;;;14.20;99.90;13.60;101737;;;;564053;248;35280;-78
2022/11/12 09:53:17;;;;;;;8.77;3.57;;;14.20;99.90;13.60;101737;;;;568676;248;24089;-79
2022/11/12 09:55:45;;;;;;;5.53;2.77;;;14.20;99.90;13.50;101731;;;;568980;248;24159;-79
2022/11/12 09:58:14;;;;;;;6.87;4.03;;;14.10;99.90;13.60;101734;;;;568658;248;24093;-77
2022/11/12 10:00:57;;;;;;;5.23;3.40;;;14.10;99.90;13.60;101742;;;;568821;248;24108;-83
2022/11/12 10:03:37;;;;;;;6.67;3.47;;;14.10;99.90;13.60;101738;;;;568009;248;24205;-79
2022/11/12 10:06:12;;;;;;;7.10;3.80;;;14.10;99.90;13.50;101748;;;;567989;248;24099;-78
2022/11/12 10:08:54;;;;;;;5.17;3.77;;;14.10;99.90;13.50;101742;;;;568296;248;24084;-82
2022/11/12 10:18:50;;;;;;;7.60;3.70;;;14.00;99.90;13.50;101755;;;;569119;248;24124;-78
2022/11/12 10:21:48;;;;;;;8.10;3.90;;;14.00;99.90;13.40;101768;;;;568738;248;24085;-80
2022/11/12 10:24:16;;;;;;;8.70;4.23;;;13.90;99.90;13.30;101766;;;;568779;248;24170;-77
2022/11/12 10:26:44;;;;;;;5.17;3.50;;;13.90;99.90;13.30;101764;;;;568779;248;24083;-79
2022/11/12 10:29:27;;;;;;;7.07;4.00;;;13.90;99.90;13.30;101753;;;;568760;248;24093;-77
2022/11/12 10:31:55;;;;;;;8.83;4.27;;;13.90;99.90;13.30;101758;;;;568233;248;24111;-78
2022/11/12 10:34:22;;;;;;;7.57;3.73;;;13.90;99.90;13.30;101771;;;;568729;248;24121;-78
2022/11/12 10:37:12;;;;;;;6.17;4.57;;;13.90;99.90;13.30;101757;;;;568817;248;24095;-80
2022/11/12 10:39:46;;;;;;;11.70;4.90;;;13.90;99.90;13.30;101772;;;;568695;248;24084;-81
2022/11/12 10:42:11;;;;;;;18.20;8.90;;;13.80;99.90;13.20;101764;;;;568663;248;24085;-77
2022/11/12 10:44:41;;;;;;;23.10;10.70;;;13.80;99.90;13.20;101765;;;;568770;248;24089;-82
2022/11/12 10:47:25;;;;;;;14.23;8.13;;;13.80;99.90;13.20;101760;;;;568521;248;24186;-79
2022/11/12 10:50:08;;;;;;;25.17;7.83;;;13.80;99.90;13.20;101756;;;;565425;248;24136;-82
2022/11/12 10:52:36;;;;;;;10.17;5.80;;;13.80;99.90;13.30;101754;;;;569482;248;24106;-78
2022/11/12 10:55:16;;;;;;;10.10;5.03;;;13.80;99.90;13.20;101752;;;;569609;248;24178;-78
2022/11/12 10:57:44;;;;;;;9.98;5.53;;;13.80;99.90;13.20;101761;;;;552350;253;35451;-84
2022/11/12 11:00:12;;;;;;;8.90;4.97;;;13.80;99.90;13.20;101753;;;;569239;248;24081;-84
2022/11/12 11:02:49;;;;;;;8.50;4.60;;;13.80;99.90;13.20;101753;;;;569091;248;24090;-83
2022/11/12 11:05:35;;;;;;;9.77;6.10;;;13.80;99.90;13.20;101755;;;;569092;248;24142;-80
2022/11/12 11:08:03;;;;;;;9.13;5.33;;;13.80;99.90;13.30;101757;;;;569004;248;24112;-86
2022/11/12 11:10:34;;;;;;;10.63;5.80;;;13.90;99.90;13.30;101749;;;;568578;248;24089;-83
2022/11/12 11:13:26;;;;;;;10.97;5.07;;;13.90;99.90;13.40;101755;;;;568514;248;24092;-78
2022/11/12 11:16:00;;;;;;;8.93;5.63;;;13.90;99.90;13.40;101765;;;;568870;248;24111;-82
2022/11/12 11:18:35;;;;;;;10.07;5.40;;;14.00;99.90;13.40;101763;;;;568563;248;24084;-87
2022/11/12 11:21:06;;;;;;;6.20;3.40;;;13.90;99.90;13.40;101755;;;;568908;248;24109;-79
2022/11/12 11:24:01;;;;;;;9.03;4.47;;;14.00;99.90;13.40;101751;;;;567969;248;24099;-79
2022/11/12 11:26:32;;;;;;;10.17;4.67;;;13.90;99.90;13.30;101736;;;;568606;248;25154;-86
2022/11/12 11:29:00;;;;;;;10.37;5.13;;;13.90;99.90;13.30;101739;;;;568096;248;24087;-85
2022/11/12 11:31:49;;;;;;;9.80;3.97;;;13.90;99.90;13.30;101733;;;;568392;248;24151;-82
2022/11/12 11:34:26;;;;;;;7.33;3.67;;;13.90;99.90;13.30;101730;;;;569519;248;24183;-83
2022/11/12 11:37:27;;;;;;;6.40;4.50;;;13.90;99.90;13.30;101737;;;;569079;248;24161;-84
2022/11/12 11:40:20;;;;;;;9.77;4.33;;;13.90;99.90;13.30;101738;;;;568723;248;24107;-84
2022/11/12 11:42:53;;;;;;;7.27;4.00;;;13.90;99.90;13.30;101737;;;;569446;248;24051;-81
2022/11/12 11:45:27;;;;;;;12.03;5.63;;;13.80;99.90;13.20;101730;;;;568861;248;24089;-79
2022/11/12 11:48:00;;;;;;;10.57;6.37;;;13.80;99.90;13.20;101738;;;;568671;248;24090;-89